Time;durP1;ratioP1;P1;durP2;ratioP2;P2;SDS_P1;SDS_P2;PMS_P1;PMS_P2;Temp;Humidity;BMP_temperature;BMP_pressure;BME280_temperature;BME280_humidity;BME280_pressure;Samples;Min_cycle;Max_cycle;Signal;HPM_P1;HPM_P2
2021/09/15 00:00:50;;;;;;;12.77;7.32;;;16.30;85.00;;;;;;4972280;28;20186;-91
2021/09/15 00:03:16;;;;;;;9.00;7.72;;;16.30;85.10;;;;;;4971503;28;20199;-91
2021/09/15 00:05:45;;;;;;;13.32;7.60;;;16.30;85.00;;;;;;4971920;28;20185;-91
2021/09/15 00:08:11;;;;;;;13.50;7.68;;;16.30;85.10;;;;;;4971800;28;20175;-91
2021/09/15 00:10:37;;;;;;;10.50;7.28;;;16.20;85.20;;;;;;4971652;28;20274;-91
2021/09/15 00:13:03;;;;;;;8.98;6.88;;;16.30;85.10;;;;;;4971499;28;20289;-91
2021/09/15 00:15:28;;;;;;;11.93;7.43;;;16.30;85.20;;;;;;4971454;28;20186;-91
2021/09/15 00:17:57;;;;;;;8.90;7.40;;;16.30;85.30;;;;;;4971308;28;20187;-91
2021/09/15 00:20:34;;;;;;;11.55;7.90;;;16.30;85.20;;;;;;4972481;28;20179;-92
2021/09/15 00:22:59;;;;;;;9.30;7.13;;;16.20;85.30;;;;;;4971680;28;20564;-90
2021/09/15 00:25:25;;;;;;;8.43;7.05;;;16.20;85.30;;;;;;4971904;28;20175;-91
2021/09/15 00:27:51;;;;;;;9.43;7.75;;;16.20;85.40;;;;;;4971758;28;20182;-91
2021/09/15 00:30:16;;;;;;;10.25;7.47;;;16.20;85.40;;;;;;4971287;28;20557;-89
2021/09/15 00:32:45;;;;;;;11.45;7.30;;;16.20;85.20;;;;;;4972171;28;20191;-89
2021/09/15 00:35:13;;;;;;;10.25;7.88;;;16.30;85.10;;;;;;4972238;28;20209;-90
2021/09/15 00:37:42;;;;;;;11.13;7.32;;;16.20;85.30;;;;;;4971077;28;20228;-91
2021/09/15 00:40:09;;;;;;;7.63;6.82;;;16.20;85.30;;;;;;4972597;28;20171;-91
2021/09/15 00:42:34;;;;;;;11.20;7.00;;;16.20;85.40;;;;;;4972361;28;20236;-91
2021/09/15 00:45:01;;;;;;;10.85;6.85;;;16.20;85.70;;;;;;4970949;28;20261;-91
2021/09/15 00:47:26;;;;;;;12.23;7.50;;;16.20;85.70;;;;;;4970924;28;20189;-91
2021/09/15 00:49:52;;;;;;;11.20;6.97;;;16.20;85.70;;;;;;4970963;28;20175;-91
2021/09/15 00:52:19;;;;;;;10.10;7.53;;;16.20;85.70;;;;;;4970039;28;20580;-91
2021/09/15 00:54:44;;;;;;;9.73;6.88;;;16.20;85.70;;;;;;4971040;28;20199;-91
2021/09/15 00:57:13;;;;;;;12.60;8.07;;;16.20;85.60;;;;;;4970995;28;20178;-91
2021/09/15 00:59:40;;;;;;;9.70;6.85;;;16.20;85.50;;;;;;4971302;28;20179;-91
2021/09/15 01:02:06;;;;;;;8.73;6.22;;;16.20;85.30;;;;;;4970797;28;20195;-91
2021/09/15 01:04:31;;;;;;;7.75;6.18;;;16.30;85.10;;;;;;4970837;28;20220;-91
2021/09/15 01:06:57;;;;;;;7.35;6.60;;;16.30;84.80;;;;;;4971327;28;20183;-91
2021/09/15 01:09:24;;;;;;;9.20;6.90;;;16.30;84.50;;;;;;4970875;28;20183;-91
2021/09/15 01:11:51;;;;;;;9.63;6.85;;;16.40;84.60;;;;;;4971837;28;20194;-91
2021/09/15 01:14:23;;;;;;;15.80;6.72;;;16.40;84.60;;;;;;4970579;28;20230;-91
2021/09/15 01:16:59;;;;;;;18.73;6.70;;;16.40;84.80;;;;;;4970972;28;20183;-91
2021/09/15 01:19:25;;;;;;;10.77;6.63;;;16.30;84.70;;;;;;4970716;28;20557;-91
2021/09/15 01:21:52;;;;;;;7.85;6.13;;;16.40;84.70;;;;;;4970517;28;20191;-91
2021/09/15 01:24:19;;;;;;;20.50;6.78;;;16.40;84.70;;;;;;4970805;28;20206;-91
2021/09/15 01:26:45;;;;;;;9.63;6.85;;;16.40;84.70;;;;;;4970973;28;20370;-91
2021/09/15 01:29:16;;;;;;;8.23;6.57;;;16.40;84.80;;;;;;4972260;28;20178;-91
2021/09/15 01:31:59;;;;;;;9.02;6.38;;;16.40;84.70;;;;;;4971627;28;20327;-91
2021/09/15 01:34:26;;;;;;;9.65;6.55;;;16.50;84.30;;;;;;4970292;28;20271;-91
2021/09/15 01:36:52;;;;;;;14.40;6.15;;;16.50;84.30;;;;;;4970911;28;20550;-91
2021/09/15 01:39:18;;;;;;;8.50;6.05;;;16.50;84.20;;;;;;4970633;28;20257;-91
2021/09/15 01:41:44;;;;;;;9.32;6.35;;;16.40;84.30;;;;;;4970800;28;20199;-91
2021/09/15 01:44:09;;;;;;;6.82;5.38;;;16.50;84.10;;;;;;4971256;28;20546;-91
2021/09/15 01:46:35;;;;;;;9.50;6.85;;;16.50;84.20;;;;;;4971986;28;20187;-91
2021/09/15 01:49:00;;;;;;;6.82;5.88;;;16.50;84.10;;;;;;4970986;28;20182;-91
2021/09/15 01:51:26;;;;;;;9.18;6.00;;;16.50;83.90;;;;;;4970418;28;20222;-91
2021/09/15 01:53:52;;;;;;;7.22;5.90;;;16.50;83.80;;;;;;4971913;28;20204;-91
2021/09/15 01:56:17;;;;;;;8.65;5.82;;;16.50;83.90;;;;;;4970667;28;20202;-91
2021/09/15 01:58:43;;;;;;;7.07;6.43;;;16.60;83.80;;;;;;4970687;28;20639;-91
2021/09/15 02:01:09;;;;;;;8.35;5.97;;;16.60;83.80;;;;;;4970474;28;20185;-91
2021/09/15 02:03:35;;;;;;;6.95;6.13;;;16.60;83.70;;;;;;4972113;28;20189;-91
2021/09/15 02:06:00;;;;;;;8.48;6.20;;;16.60;83.60;;;;;;4974105;28;20206;-91
2021/09/15 02:08:26;;;;;;;9.10;6.35;;;16.60;83.70;;;;;;4974608;28;20266;-91
2021/09/15 02:10:52;;;;;;;7.60;6.32;;;16.60;84.10;;;;;;4973683;28;20612;-91
2021/09/15 02:13:18;;;;;;;7.82;6.45;;;16.60;84.30;;;;;;4973829;28;20202;-91
2021/09/15 02:15:45;;;;;;;8.02;6.93;;;16.60;84.50;;;;;;4973794;28;20232;-91
2021/09/15 02:18:11;;;;;;;8.48;6.50;;;16.60;84.50;;;;;;4974558;28;20171;-91
2021/09/15 02:20:37;;;;;;;11.10;6.85;;;16.50;84.70;;;;;;4973536;28;20277;-91
2021/09/15 02:23:03;;;;;;;8.68;7.03;;;16.50;85.10;;;;;;4974422;28;20324;-91
2021/09/15 02:25:28;;;;;;;7.65;6.78;;;16.50;85.10;;;;;;4974624;28;20167;-91
2021/09/15 02:27:54;;;;;;;7.57;6.82;;;16.50;84.90;;;;;;4973893;28;20178;-91
2021/09/15 02:30:20;;;;;;;11.30;7.55;;;16.50;85.00;;;;;;4973701;28;20284;-91
2021/09/15 02:32:48;;;;;;;9.73;7.22;;;16.50;85.10;;;;;;4974531;28;20554;-91
2021/09/15 02:35:16;;;;;;;11.68;7.43;;;16.50;85.20;;;;;;4973942;28;20199;-91
2021/09/15 02:37:42;;;;;;;9.63;7.53;;;16.50;85.10;;;;;;4973736;28;20179;-92
2021/09/15 02:40:11;;;;;;;7.05;6.45;;;16.40;85.30;;;;;;4973614;28;20175;-92
2021/09/15 02:42:37;;;;;;;7.60;6.82;;;16.50;85.70;;;;;;4972880;28;20202;-91
2021/09/15 02:45:03;;;;;;;8.07;7.13;;;16.40;85.90;;;;;;4973304;28;20182;-91
2021/09/15 02:47:29;;;;;;;9.75;7.47;;;16.50;85.70;;;;;;4974199;28;20182;-91
2021/09/15 02:49:54;;;;;;;9.10;7.68;;;16.50;85.60;;;;;;4972842;28;20236;-91
2021/09/15 02:52:20;;;;;;;10.68;8.05;;;16.50;85.60;;;;;;4973009;28;20257;-91
2021/09/15 02:54:46;;;;;;;10.90;7.68;;;16.40;85.60;;;;;;4972838;28;20233;-91
2021/09/15 02:57:11;;;;;;;8.30;7.45;;;16.30;85.80;;;;;;4973045;28;20175;-91
2021/09/15 02:59:37;;;;;;;8.60;7.70;;;16.40;85.90;;;;;;4972737;28;20189;-91
2021/09/15 03:02:03;;;;;;;13.18;8.15;;;16.30;86.10;;;;;;4973017;28;20202;-91
2021/09/15 03:04:28;;;;;;;8.27;7.47;;;16.40;86.30;;;;;;4973462;28;20178;-92
2021/09/15 03:06:54;;;;;;;11.98;7.47;;;16.30;86.00;;;;;;4973983;28;20190;-91
2021/09/15 03:09:20;;;;;;;16.20;8.27;;;16.30;86.30;;;;;;4973559;28;20183;-92
2021/09/15 03:11:45;;;;;;;10.68;8.40;;;16.30;86.50;;;;;;4973134;28;20252;-92
2021/09/15 03:14:11;;;;;;;15.27;8.18;;;16.30;86.70;;;;;;4972792;28;20203;-92
2021/09/15 03:16:37;;;;;;;10.73;8.02;;;16.30;86.80;;;;;;4973391;28;20720;-92
2021/09/15 03:19:03;;;;;;;13.75;8.40;;;16.20;87.20;;;;;;4973256;28;20179;-92
2021/09/15 03:21:31;;;;;;;10.85;8.95;;;16.20;87.50;;;;;;4973751;28;20249;-92
2021/09/15 03:23:57;;;;;;;10.45;8.85;;;16.10;87.70;;;;;;4973854;28;20217;-91
2021/09/15 03:26:23;;;;;;;12.30;8.93;;;16.10;87.80;;;;;;4973255;28;20182;-92
2021/09/15 03:28:48;;;;;;;11.90;8.95;;;16.10;87.90;;;;;;4973110;28;20179;-92
2021/09/15 03:31:14;;;;;;;9.48;8.45;;;16.10;88.00;;;;;;4973219;28;20189;-92
2021/09/15 03:33:40;;;;;;;12.77;8.63;;;16.00;87.90;;;;;;4972808;28;20206;-92
2021/09/15 03:36:06;;;;;;;10.85;9.75;;;16.10;88.00;;;;;;4973037;28;20175;-92
2021/09/15 03:38:32;;;;;;;10.45;9.10;;;16.00;87.90;;;;;;4973110;28;20179;-92
2021/09/15 03:40:58;;;;;;;9.95;8.68;;;16.00;87.80;;;;;;4974107;28;20182;-91
2021/09/15 03:43:24;;;;;;;12.68;9.05;;;16.10;87.70;;;;;;4972179;28;20203;-92
2021/09/15 03:45:49;;;;;;;13.63;9.90;;;16.10;87.70;;;;;;4972646;28;20662;-91
2021/09/15 03:48:15;;;;;;;13.50;9.75;;;16.10;87.60;;;;;;4972158;28;20194;-91
2021/09/15 03:50:43;;;;;;;13.63;8.93;;;16.00;87.80;;;;;;4971922;28;20525;-91
2021/09/15 03:53:12;;;;;;;12.23;9.90;;;16.00;87.80;;;;;;4971792;28;20205;-91
2021/09/15 03:55:37;;;;;;;11.50;8.95;;;16.00;87.90;;;;;;4971888;28;20178;-91
2021/09/15 03:58:03;;;;;;;10.68;9.20;;;16.00;88.00;;;;;;4972649;28;20182;-91
2021/09/15 04:00:29;;;;;;;10.73;9.43;;;16.00;88.10;;;;;;4973332;28;20167;-92
2021/09/15 04:02:54;;;;;;;10.48;9.35;;;16.00;87.80;;;;;;4972086;28;20195;-92
2021/09/15 04:05:20;;;;;;;12.27;9.68;;;16.00;88.00;;;;;;4973038;28;20632;-91
2021/09/15 04:07:46;;;;;;;22.48;9.50;;;16.00;87.90;;;;;;4972176;28;20231;-91
2021/09/15 04:10:11;;;;;;;14.80;9.77;;;16.00;87.90;;;;;;4972237;28;20175;-91
2021/09/15 04:12:37;;;;;;;12.32;9.50;;;16.00;88.10;;;;;;4972126;28;20307;-91
2021/09/15 04:15:18;;;;;;;11.43;10.23;;;15.90;88.10;;;;;;4972816;28;20194;-92
2021/09/15 04:17:55;;;;;;;12.55;9.65;;;16.00;88.20;;;;;;4971725;28;20223;-91
2021/09/15 04:20:21;;;;;;;16.35;9.63;;;15.90;88.20;;;;;;4971806;28;20210;-92
2021/09/15 04:22:48;;;;;;;18.25;11.02;;;15.90;88.30;;;;;;4971988;28;20210;-91
2021/09/15 04:33:26;;;;;;;15.40;10.35;;;15.90;88.30;;;;;;4972658;28;20209;-91
2021/09/15 04:35:52;;;;;;;12.23;10.52;;;15.80;88.60;;;;;;4972237;28;20174;-91
2021/09/15 04:38:18;;;;;;;16.92;11.40;;;15.80;88.70;;;;;;4971221;28;20593;-91
2021/09/15 04:40:44;;;;;;;17.23;10.60;;;15.70;88.90;;;;;;4971562;28;20171;-91
2021/09/15 04:43:12;;;;;;;15.90;10.70;;;15.80;89.00;;;;;;4971133;28;20206;-91
2021/09/15 04:45:37;;;;;;;13.35;11.95;;;15.70;89.10;;;;;;4971669;28;20229;-91
2021/09/15 04:48:04;;;;;;;12.65;10.90;;;15.70;89.20;;;;;;4971942;28;20529;-91
2021/09/15 04:50:30;;;;;;;16.95;11.98;;;15.70;89.20;;;;;;4971428;28;20207;-91
2021/09/15 04:52:59;;;;;;;14.10;11.02;;;15.70;89.30;;;;;;4971216;28;20261;-91
2021/09/15 04:55:25;;;;;;;15.10;11.43;;;15.70;89.40;;;;;;4971264;28;20282;-91
2021/09/15 04:57:51;;;;;;;13.95;11.77;;;15.70;89.50;;;;;;4971446;28;20209;-91
2021/09/15 05:00:17;;;;;;;17.85;11.95;;;15.60;89.60;;;;;;4970811;28;20174;-91
2021/09/15 05:02:43;;;;;;;16.33;12.80;;;15.70;89.80;;;;;;4970999;28;20203;-91
2021/09/15 05:05:12;;;;;;;13.27;11.88;;;15.70;89.70;;;;;;4971281;28;20218;-91
2021/09/15 05:07:37;;;;;;;14.73;11.77;;;15.70;89.70;;;;;;4971176;28;20209;-91
2021/09/15 05:10:04;;;;;;;14.40;12.35;;;15.70;89.70;;;;;;4971207;28;20182;-91
2021/09/15 05:12:29;;;;;;;13.82;12.43;;;15.70;89.60;;;;;;4971006;28;20203;-91
2021/09/15 05:14:56;;;;;;;14.18;11.77;;;15.70;89.70;;;;;;4971501;28;20267;-91
2021/09/15 05:17:22;;;;;;;14.02;12.52;;;15.70;89.80;;;;;;4972372;28;20174;-91
2021/09/15 05:19:48;;;;;;;14.68;11.48;;;15.70;89.80;;;;;;4971315;28;20264;-91
2021/09/15 05:22:14;;;;;;;14.27;12.50;;;15.70;89.70;;;;;;4971649;28;20201;-92
2021/09/15 05:24:39;;;;;;;16.13;11.73;;;15.70;89.60;;;;;;4971034;28;20214;-91
2021/09/15 05:27:05;;;;;;;14.70;11.65;;;15.70;89.60;;;;;;4971160;28;20236;-92
2021/09/15 05:29:31;;;;;;;15.23;12.20;;;15.70;89.50;;;;;;4970974;28;20624;-92
2021/09/15 05:31:57;;;;;;;19.05;12.13;;;15.80;89.40;;;;;;4971729;28;20206;-91
2021/09/15 05:34:22;;;;;;;14.77;11.43;;;15.80;89.40;;;;;;4972199;28;20190;-91
2021/09/15 05:36:48;;;;;;;13.73;12.13;;;15.80;89.20;;;;;;4970942;28;20262;-91
2021/09/15 05:39:14;;;;;;;14.77;11.57;;;15.80;89.30;;;;;;4974088;28;20246;-91
2021/09/15 05:41:40;;;;;;;13.65;11.77;;;15.70;89.30;;;;;;4974504;28;20592;-92
2021/09/15 05:44:06;;;;;;;16.23;12.13;;;15.80;89.50;;;;;;4974449;28;20187;-92
2021/09/15 05:46:31;;;;;;;17.83;12.30;;;15.80;89.40;;;;;;4974077;28;20693;-92
2021/09/15 05:48:57;;;;;;;13.77;11.63;;;15.80;89.30;;;;;;4975652;28;20167;-92
2021/09/15 05:51:23;;;;;;;12.43;11.15;;;15.80;89.40;;;;;;4974345;28;20222;-92
2021/09/15 05:53:49;;;;;;;16.45;11.23;;;15.80;89.50;;;;;;4974356;28;20297;-91
2021/09/15 05:56:17;;;;;;;16.05;12.27;;;15.80;89.40;;;;;;4974252;28;20544;-91
2021/09/15 05:58:43;;;;;;;14.82;11.52;;;15.90;89.30;;;;;;4974071;28;20179;-92
2021/09/15 06:01:11;;;;;;;14.23;12.27;;;15.90;89.50;;;;;;4973776;28;20293;-92
2021/09/15 06:03:37;;;;;;;18.20;12.68;;;15.80;89.40;;;;;;4974370;28;20183;-92
2021/09/15 06:06:03;;;;;;;15.57;11.73;;;15.90;89.40;;;;;;4973938;28;20186;-92
2021/09/15 06:08:29;;;;;;;13.57;11.32;;;15.90;89.40;;;;;;4973804;28;20595;-92
2021/09/15 06:10:56;;;;;;;15.27;11.18;;;15.90;89.30;;;;;;4974412;28;20659;-92
2021/09/15 06:13:22;;;;;;;13.35;11.50;;;15.90;89.40;;;;;;4974930;28;20311;-92
2021/09/15 06:15:47;;;;;;;14.10;11.35;;;16.00;89.30;;;;;;4975238;28;20694;-92
2021/09/15 06:18:13;;;;;;;16.77;11.32;;;16.00;89.20;;;;;;4974225;28;20179;-92
2021/09/15 06:20:45;;;;;;;13.75;11.68;;;16.00;89.00;;;;;;4974353;28;20213;-92
2021/09/15 06:23:11;;;;;;;13.98;11.55;;;16.00;88.80;;;;;;4975099;28;20194;-91
2021/09/15 06:25:37;;;;;;;12.00;10.80;;;16.00;88.90;;;;;;4974377;28;20519;-91
2021/09/15 06:28:03;;;;;;;13.50;11.77;;;16.00;88.70;;;;;;4974567;28;20167;-91
2021/09/15 06:30:29;;;;;;;14.05;11.00;;;16.10;88.60;;;;;;4973376;28;20179;-90
2021/09/15 06:32:54;;;;;;;13.38;10.93;;;16.10;88.50;;;;;;4973097;28;20198;-90
2021/09/15 06:35:20;;;;;;;12.05;10.88;;;16.10;88.50;;;;;;4973078;28;20324;-90
2021/09/15 06:37:46;;;;;;;18.13;12.05;;;16.10;88.50;;;;;;4974523;28;20507;-91
2021/09/15 06:40:12;;;;;;;16.70;11.43;;;16.10;88.50;;;;;;4973066;28;20175;-90
2021/09/15 06:42:37;;;;;;;20.33;12.00;;;16.10;88.40;;;;;;4972905;28;20237;-91
2021/09/15 06:45:04;;;;;;;13.07;11.20;;;16.10;88.60;;;;;;4973282;28;20179;-91
2021/09/15 06:47:30;;;;;;;19.25;11.80;;;16.10;88.60;;;;;;4974312;28;20178;-91
2021/09/15 06:49:56;;;;;;;14.00;11.50;;;16.20;88.80;;;;;;4971678;28;20178;-91
2021/09/15 06:52:22;;;;;;;13.35;12.15;;;16.20;88.80;;;;;;4972745;28;20214;-91
2021/09/15 06:54:49;;;;;;;13.85;12.45;;;16.20;89.00;;;;;;4973965;28;20211;-91
2021/09/15 06:57:16;;;;;;;15.07;12.13;;;16.20;89.00;;;;;;4973619;28;20614;-91
2021/09/15 06:59:42;;;;;;;15.50;13.18;;;16.20;89.00;;;;;;4973442;28;20175;-91
2021/09/15 07:02:07;;;;;;;15.00;11.95;;;16.20;89.10;;;;;;4974613;28;20195;-91
2021/09/15 07:04:34;;;;;;;14.27;12.68;;;16.20;89.20;;;;;;4974742;28;20174;-91
2021/09/15 07:07:00;;;;;;;15.30;12.73;;;16.20;89.30;;;;;;4972838;28;20183;-91
2021/09/15 07:09:26;;;;;;;18.65;13.43;;;16.20;89.40;;;;;;4972830;28;20186;-91
2021/09/15 07:11:51;;;;;;;18.30;13.70;;;16.20;89.50;;;;;;4973980;28;20206;-91
2021/09/15 07:14:17;;;;;;;21.45;14.07;;;16.20;89.70;;;;;;4974227;28;20206;-91
2021/09/15 07:16:46;;;;;;;17.80;13.73;;;16.10;89.90;;;;;;4974042;28;20207;-91
2021/09/15 07:19:14;;;;;;;19.73;12.88;;;16.10;90.00;;;;;;4974312;28;20258;-91
2021/09/15 07:21:40;;;;;;;18.20;13.07;;;16.10;90.30;;;;;;4973978;28;20194;-92
2021/09/15 07:24:09;;;;;;;22.13;14.00;;;16.00;90.60;;;;;;4973536;28;20270;-91
2021/09/15 07:26:34;;;;;;;23.17;15.32;;;16.10;90.70;;;;;;4973797;28;20171;-92
2021/09/15 07:29:00;;;;;;;19.35;14.40;;;16.00;90.90;;;;;;4973619;28;20170;-91
2021/09/15 07:31:26;;;;;;;22.25;15.15;;;16.00;91.10;;;;;;4973158;28;20542;-92
2021/09/15 07:33:51;;;;;;;19.95;14.82;;;16.00;91.20;;;;;;4972368;28;20211;-91
2021/09/15 07:36:25;;;;;;;22.98;15.65;;;16.00;91.30;;;;;;4972684;28;20178;-91
2021/09/15 07:38:50;;;;;;;17.85;15.57;;;16.00;91.30;;;;;;4973832;28;20157;-91
2021/09/15 07:41:16;;;;;;;17.33;14.77;;;16.00;91.40;;;;;;4973475;28;20262;-91
2021/09/15 07:43:45;;;;;;;19.17;14.43;;;16.00;91.30;;;;;;4972239;28;20270;-91
2021/09/15 07:46:14;;;;;;;19.63;15.45;;;16.00;91.30;;;;;;4972139;28;20183;-91
2021/09/15 07:48:40;;;;;;;20.10;15.27;;;16.00;91.40;;;;;;4973892;28;20178;-91
2021/09/15 07:51:06;;;;;;;17.10;14.82;;;15.90;91.40;;;;;;4973173;28;20729;-91
2021/09/15 07:53:31;;;;;;;20.02;15.07;;;16.00;91.50;;;;;;4971988;28;20179;-91
2021/09/15 07:55:57;;;;;;;18.00;15.57;;;16.00;91.50;;;;;;4973161;28;20224;-91
2021/09/15 07:58:23;;;;;;;25.85;15.75;;;15.90;91.50;;;;;;4973220;28;20166;-91
2021/09/15 08:00:49;;;;;;;16.33;14.57;;;16.00;91.70;;;;;;4971875;28;20182;-91
2021/09/15 08:03:18;;;;;;;20.10;15.18;;;16.00;91.70;;;;;;4973227;28;20190;-91
2021/09/15 08:05:43;;;;;;;22.75;14.98;;;16.00;91.70;;;;;;4973064;28;20206;-91
2021/09/15 08:08:12;;;;;;;18.45;15.57;;;16.00;91.80;;;;;;4973318;28;20603;-91
2021/09/15 08:10:38;;;;;;;20.80;16.23;;;16.00;91.80;;;;;;4972763;28;20167;-92
2021/09/15 08:13:04;;;;;;;20.42;16.55;;;16.00;91.80;;;;;;4971548;28;20202;-91
2021/09/15 08:15:30;;;;;;;20.00;17.15;;;16.00;91.90;;;;;;4980492;28;20593;-93
2021/09/15 08:17:59;;;;;;;20.50;16.13;;;16.00;92.10;;;;;;4985277;28;20174;-92
2021/09/15 08:20:24;;;;;;;19.55;16.55;;;16.00;92.10;;;;;;4983079;28;20171;-92
2021/09/15 08:22:55;;;;;;;20.98;15.98;;;16.10;92.10;;;;;;4982837;28;20273;-93
2021/09/15 08:25:33;;;;;;;19.30;16.98;;;16.20;92.10;;;;;;4978707;28;20208;-92
2021/09/15 08:28:02;;;;;;;22.23;16.60;;;16.20;92.10;;;;;;4978136;28;20183;-93
2021/09/15 08:30:28;;;;;;;21.95;16.15;;;16.20;92.00;;;;;;4980587;28;20183;-92
2021/09/15 08:32:56;;;;;;;23.27;15.63;;;16.20;92.00;;;;;;4981789;28;20191;-92
2021/09/15 08:35:31;;;;;;;19.85;16.08;;;16.20;91.90;;;;;;4984352;28;20671;-92
2021/09/15 08:38:11;;;;;;;20.55;15.48;;;16.20;91.90;;;;;;4980323;28;20221;-93
2021/09/15 08:40:46;;;;;;;19.95;16.67;;;16.20;92.00;;;;;;4979372;28;20175;-93
2021/09/15 08:43:20;;;;;;;21.20;17.10;;;16.20;92.10;;;;;;4977288;28;20688;-92
2021/09/15 08:45:54;;;;;;;23.98;17.52;;;16.20;92.20;;;;;;4978738;28;20178;-93
2021/09/15 08:48:24;;;;;;;20.83;17.25;;;16.30;92.30;;;;;;4979266;28;20187;-93
2021/09/15 08:50:51;;;;;;;21.77;15.95;;;16.20;92.20;;;;;;4976499;28;20205;-93
2021/09/15 08:53:20;;;;;;;25.73;17.15;;;16.30;92.30;;;;;;4978409;28;20221;-93
2021/09/15 08:55:49;;;;;;;19.38;16.13;;;16.30;92.30;;;;;;4977120;28;20180;-93
2021/09/15 08:58:19;;;;;;;24.27;18.20;;;16.30;92.20;;;;;;4975553;28;20190;-92
2021/09/15 09:00:56;;;;;;;20.70;17.05;;;16.40;92.30;;;;;;4982360;28;20619;-93
2021/09/15 09:03:44;;;;;;;24.63;17.45;;;16.30;92.20;;;;;;4985232;28;20274;-93
2021/09/15 09:06:13;;;;;;;20.73;17.10;;;16.30;92.20;;;;;;4993785;28;20242;-93
2021/09/15 09:08:41;;;;;;;22.75;17.90;;;16.30;92.30;;;;;;4993896;28;20171;-93
2021/09/15 09:11:07;;;;;;;18.48;16.52;;;16.30;92.30;;;;;;4993879;28;20166;-93
2021/09/15 09:13:35;;;;;;;21.35;17.73;;;16.40;92.50;;;;;;4994436;28;20183;-93
2021/09/15 09:16:04;;;;;;;20.48;17.55;;;16.30;92.50;;;;;;4994705;28;20242;-93
2021/09/15 09:19:06;;;;;;;25.67;18.60;;;16.30;92.60;;;;;;4994564;28;20245;-92
2021/09/15 09:21:54;;;;;;;24.35;17.98;;;16.40;92.60;;;;;;4995748;28;20178;-92
2021/09/15 09:24:38;;;;;;;21.13;18.63;;;16.30;92.70;;;;;;4996952;28;20148;-92
2021/09/15 09:27:28;;;;;;;21.83;18.70;;;16.40;92.70;;;;;;4996534;28;20163;-91
2021/09/15 09:30:04;;;;;;;21.48;17.80;;;16.40;92.70;;;;;;4996321;28;20163;-91
2021/09/15 09:32:41;;;;;;;20.77;18.05;;;16.40;92.70;;;;;;4995977;28;20214;-92
2021/09/15 09:35:31;;;;;;;23.85;18.27;;;16.40;92.70;;;;;;4996343;28;20202;-92
2021/09/15 09:40:58;;;;;;;22.00;18.38;;;16.30;92.80;;;;;;5086057;23;20261;-90
2021/09/15 09:43:28;;;;;;;27.30;19.23;;;16.40;92.80;;;;;;5092379;28;20192;-90
2021/09/15 09:45:54;;;;;;;22.58;19.80;;;16.40;92.90;;;;;;5093301;28;20638;-90
2021/09/15 09:48:36;;;;;;;21.88;19.00;;;16.50;92.90;;;;;;5093476;28;20178;-90
2021/09/15 09:51:21;;;;;;;25.63;20.70;;;16.40;92.90;;;;;;5094336;28;20163;-90
2021/09/15 09:53:47;;;;;;;21.23;18.55;;;16.40;93.00;;;;;;5094724;28;20715;-90
2021/09/15 09:56:22;;;;;;;21.95;19.75;;;16.50;92.90;;;;;;5098390;28;20173;-90
2021/09/15 09:58:48;;;;;;;30.40;18.55;;;16.50;92.90;;;;;;5101076;28;20242;-91
2021/09/15 10:01:18;;;;;;;22.25;19.45;;;16.50;92.90;;;;;;5096190;28;20163;-91
2021/09/15 10:03:47;;;;;;;23.20;19.92;;;16.50;92.90;;;;;;5093008;28;20273;-90
2021/09/15 10:06:15;;;;;;;29.77;20.70;;;16.50;92.90;;;;;;5092802;28;20182;-90
2021/09/15 10:08:42;;;;;;;24.02;20.90;;;16.60;93.00;;;;;;5092203;28;20186;-90
2021/09/15 10:11:09;;;;;;;23.67;21.13;;;16.60;93.00;;;;;;5093068;28;20293;-90
2021/09/15 10:13:34;;;;;;;26.02;21.15;;;16.70;93.10;;;;;;5092136;28;20183;-90
2021/09/15 10:16:05;;;;;;;27.27;21.52;;;16.70;93.10;;;;;;5092211;28;20183;-90
2021/09/15 10:18:31;;;;;;;30.70;21.95;;;16.70;93.10;;;;;;5091809;28;20171;-90
2021/09/15 10:20:58;;;;;;;30.58;22.48;;;16.70;93.20;;;;;;5092221;28;20174;-90
2021/09/15 10:23:46;;;;;;;25.73;21.52;;;16.80;93.20;;;;;;5092540;28;20198;-90
2021/09/15 10:26:36;;;;;;;27.08;23.13;;;16.80;93.20;;;;;;5096531;28;20163;-90
2021/09/15 10:29:24;;;;;;;29.70;23.70;;;16.80;93.10;;;;;;5096298;28;20159;-90
2021/09/15 10:32:04;;;;;;;31.13;24.23;;;16.70;93.10;;;;;;5102436;28;20713;-91
2021/09/15 10:35:00;;;;;;;29.85;23.27;;;16.80;93.20;;;;;;5113924;28;20210;-92
2021/09/15 10:37:56;;;;;;;27.45;22.15;;;16.80;93.30;;;;;;5105089;28;20186;-91
2021/09/15 10:40:35;;;;;;;28.95;21.98;;;16.80;93.20;;;;;;5106873;28;20234;-91
2021/09/15 10:43:04;;;;;;;28.42;23.55;;;16.90;93.30;;;;;;5111753;28;20272;-91
2021/09/15 10:45:31;;;;;;;25.17;22.58;;;16.80;93.10;;;;;;5108045;28;20185;-91
2021/09/15 10:48:05;;;;;;;34.88;24.45;;;16.80;93.20;;;;;;5115528;28;20178;-92
2021/09/15 10:50:34;;;;;;;28.30;22.20;;;16.80;93.20;;;;;;5099774;28;20171;-91
2021/09/15 10:53:12;;;;;;;26.08;23.20;;;16.80;93.20;;;;;;5108909;28;20223;-91
2021/09/15 10:56:00;;;;;;;30.60;24.23;;;16.80;93.20;;;;;;5108598;28;20182;-92
2021/09/15 11:06:10;;;;;;;29.45;24.27;;;16.70;93.20;;;;;;5112902;28;20220;-92
2021/09/15 11:08:37;;;;;;;35.55;24.40;;;16.70;93.30;;;;;;5111987;28;20250;-92
2021/09/15 11:11:05;;;;;;;30.13;25.00;;;16.70;93.40;;;;;;5101346;28;20171;-92
2021/09/15 11:13:33;;;;;;;28.13;24.30;;;16.70;93.50;;;;;;5074827;28;20616;-90
2021/09/15 11:16:34;;;;;;;31.30;24.35;;;16.70;93.60;;;;;;5077724;28;20178;-93
2021/09/15 11:19:07;;;;;;;35.42;24.70;;;16.70;93.70;;;;;;5081924;28;20261;-93
2021/09/15 13:59:49;;;;;;;34.10;27.80;;;17.30;94.20;;;;;;5653338;22;20227;-93
2021/09/15 14:02:15;;;;;;;34.42;27.67;;;17.30;94.10;;;;;;5092522;28;20203;-94
2021/09/15 14:04:41;;;;;;;32.65;27.13;;;17.30;94.10;;;;;;5257161;23;20227;-93
2021/09/15 14:07:07;;;;;;;35.53;27.60;;;17.30;94.10;;;;;;5098173;28;20175;-92
2021/09/15 14:09:34;;;;;;;34.35;28.63;;;17.30;94.10;;;;;;5306345;22;20202;-94
2021/09/15 14:41:55;;;;;;;32.50;28.92;;;17.90;94.10;;;;;;5204568;23;20268;-93
2021/09/15 14:44:30;;;;;;;34.72;29.23;;;17.90;94.10;;;;;;5090548;28;20156;-93
2021/09/15 14:46:56;;;;;;;32.90;28.95;;;17.90;94.00;;;;;;5311862;22;20230;-93
2021/09/15 14:49:22;;;;;;;36.28;27.38;;;17.90;94.00;;;;;;5087698;28;20203;-93
2021/09/15 14:51:48;;;;;;;34.22;27.45;;;17.90;93.90;;;;;;5089985;28;20210;-93
2021/09/15 14:54:17;;;;;;;30.65;27.42;;;17.90;93.80;;;;;;5076765;28;20706;-92
2021/09/15 14:56:48;;;;;;;31.60;27.30;;;18.00;93.80;;;;;;5253050;23;20251;-93
2021/09/15 14:59:14;;;;;;;30.48;27.35;;;18.00;93.70;;;;;;5086731;28;20179;-93
2021/09/15 15:01:43;;;;;;;30.48;27.17;;;17.90;93.60;;;;;;5076195;28;20273;-92
2021/09/15 15:04:08;;;;;;;32.80;27.13;;;17.90;93.50;;;;;;5090389;28;20190;-96
2021/09/15 15:06:34;;;;;;;29.85;26.65;;;17.90;93.50;;;;;;5101023;28;20354;-95
2021/09/15 15:09:00;;;;;;;28.92;25.92;;;18.00;93.60;;;;;;5090806;28;20176;-93
2021/09/15 15:11:45;;;;;;;29.35;26.45;;;18.00;93.50;;;;;;5088673;28;20191;-94
2021/09/15 15:14:11;;;;;;;28.75;25.58;;;18.00;93.50;;;;;;5081566;28;20211;-93
2021/09/15 15:16:37;;;;;;;30.73;25.40;;;18.00;93.50;;;;;;5079620;28;20524;-92
2021/09/15 15:19:03;;;;;;;30.00;26.35;;;18.00;93.40;;;;;;5077486;28;20178;-93
2021/09/15 15:21:29;;;;;;;28.60;25.58;;;18.00;93.30;;;;;;5092363;28;20175;-93
2021/09/15 15:23:55;;;;;;;33.38;26.60;;;18.00;93.20;;;;;;5092119;28;20222;-93
2021/09/15 15:26:21;;;;;;;30.10;26.48;;;18.00;93.20;;;;;;5093854;28;20179;-93
2021/09/15 15:28:48;;;;;;;32.35;25.80;;;18.00;93.00;;;;;;5094753;28;20179;-93
2021/09/15 15:31:13;;;;;;;28.30;25.30;;;18.10;93.10;;;;;;5145367;22;20227;-92
2021/09/15 15:33:46;;;;;;;28.73;24.95;;;18.20;93.00;;;;;;5080839;28;20183;-93
2021/09/15 15:36:33;;;;;;;29.27;24.50;;;18.20;92.90;;;;;;5084818;28;20209;-93
2021/09/15 15:39:33;;;;;;;29.35;25.05;;;18.20;92.80;;;;;;5077905;28;20254;-93
2021/09/15 15:41:59;;;;;;;28.48;23.90;;;18.20;92.90;;;;;;5085732;28;20592;-92
2021/09/15 15:44:26;;;;;;;27.05;24.35;;;18.20;92.70;;;;;;5080087;28;20281;-92
2021/09/15 15:46:53;;;;;;;28.20;25.20;;;18.10;92.50;;;;;;5077802;28;20274;-93
2021/09/15 15:49:18;;;;;;;27.67;24.95;;;18.10;92.50;;;;;;5079921;28;20197;-93
2021/09/15 15:51:45;;;;;;;29.50;26.30;;;18.20;92.60;;;;;;5077688;28;20697;-93
2021/09/15 15:54:28;;;;;;;31.85;26.65;;;18.20;92.60;;;;;;5083679;28;20195;-93
2021/09/15 15:56:55;;;;;;;28.33;25.38;;;18.20;92.70;;;;;;5090107;28;20186;-94
2021/09/15 15:59:21;;;;;;;28.55;25.23;;;18.00;92.60;;;;;;5086699;28;20199;-92
2021/09/15 16:01:46;;;;;;;38.85;25.58;;;18.10;92.70;;;;;;5095758;28;20206;-93
2021/09/15 16:04:12;;;;;;;27.00;24.27;;;18.10;92.70;;;;;;5096975;28;20239;-93
2021/09/15 16:06:39;;;;;;;26.77;23.60;;;18.00;92.70;;;;;;5098735;28;20151;-93